sensor_id;sensor_type;location;lat;lon;timestamp;pressure;altitude;pressure_sealevel;temperature
13304;BMP280;6720;51.958;4.540;2022-08-20T00:00:29;101371.72;;;19.92
13304;BMP280;6720;51.958;4.540;2022-08-20T00:02:58;101372.66;;;19.91
13304;BMP280;6720;51.958;4.540;2022-08-20T00:05:29;101373.88;;;19.84
13304;BMP280;6720;51.958;4.540;2022-08-20T00:07:55;101355.72;;;19.75
13304;BMP280;6720;51.958;4.540;2022-08-20T00:10:25;101366.78;;;19.85
13304;BMP280;6720;51.958;4.540;2022-08-20T00:12:51;101383.34;;;19.90
13304;BMP280;6720;51.958;4.540;2022-08-20T00:15:19;101385.31;;;19.86
13304;BMP280;6720;51.958;4.540;2022-08-20T00:17:48;101386.63;;;19.96
13304;BMP280;6720;51.958;4.540;2022-08-20T00:20:19;101365.19;;;19.81
13304;BMP280;6720;51.958;4.540;2022-08-20T00:22:45;101379.84;;;19.89
13304;BMP280;6720;51.958;4.540;2022-08-20T00:25:11;101382.06;;;19.98
13304;BMP280;6720;51.958;4.540;2022-08-20T00:27:37;101367.22;;;19.94
13304;BMP280;6720;51.958;4.540;2022-08-20T00:30:05;101377.56;;;20.00
13304;BMP280;6720;51.958;4.540;2022-08-20T00:32:31;101383.66;;;20.02
13304;BMP280;6720;51.958;4.540;2022-08-20T00:34:57;101375.25;;;19.93
13304;BMP280;6720;51.958;4.540;2022-08-20T00:37:22;101378.41;;;19.82
13304;BMP280;6720;51.958;4.540;2022-08-20T00:39:47;101383.94;;;19.78
13304;BMP280;6720;51.958;4.540;2022-08-20T00:42:13;101386.53;;;19.79
13304;BMP280;6720;51.958;4.540;2022-08-20T00:44:45;101366.78;;;19.66
13304;BMP280;6720;51.958;4.540;2022-08-20T00:47:10;101390.19;;;19.77
13304;BMP280;6720;51.958;4.540;2022-08-20T00:49:35;101360.16;;;19.56
13304;BMP280;6720;51.958;4.540;2022-08-20T00:52:04;101386.00;;;19.71
13304;BMP280;6720;51.958;4.540;2022-08-20T00:54:38;101382.41;;;19.72
13304;BMP280;6720;51.958;4.540;2022-08-20T00:57:13;101388.66;;;19.71
13304;BMP280;6720;51.958;4.540;2022-08-20T00:59:42;101379.38;;;19.61
13304;BMP280;6720;51.958;4.540;2022-08-20T01:02:11;101377.94;;;19.54
13304;BMP280;6720;51.958;4.540;2022-08-20T01:04:37;101379.97;;;19.68
13304;BMP280;6720;51.958;4.540;2022-08-20T01:07:04;101387.09;;;19.67
13304;BMP280;6720;51.958;4.540;2022-08-20T01:09:31;101386.16;;;19.68
13304;BMP280;6720;51.958;4.540;2022-08-20T01:11:57;101386.56;;;19.59
13304;BMP280;6720;51.958;4.540;2022-08-20T01:14:22;101391.72;;;19.62
13304;BMP280;6720;51.958;4.540;2022-08-20T01:16:55;101393.53;;;19.62
13304;BMP280;6720;51.958;4.540;2022-08-20T01:19:33;101398.91;;;19.60
13304;BMP280;6720;51.958;4.540;2022-08-20T01:22:00;101400.50;;;19.64
13304;BMP280;6720;51.958;4.540;2022-08-20T01:24:48;101390.44;;;19.52
13304;BMP280;6720;51.958;4.540;2022-08-20T01:27:14;101393.88;;;19.54
13304;BMP280;6720;51.958;4.540;2022-08-20T01:29:39;101398.34;;;19.54
13304;BMP280;6720;51.958;4.540;2022-08-20T01:32:05;101398.34;;;19.34
13304;BMP280;6720;51.958;4.540;2022-08-20T01:34:31;101403.00;;;19.29
13304;BMP280;6720;51.958;4.540;2022-08-20T01:36:58;101402.28;;;19.25
13304;BMP280;6720;51.958;4.540;2022-08-20T01:39:33;101410.91;;;19.30
13304;BMP280;6720;51.958;4.540;2022-08-20T01:42:18;101409.53;;;19.20
13304;BMP280;6720;51.958;4.540;2022-08-20T01:44:46;101401.31;;;19.06
13304;BMP280;6720;51.958;4.540;2022-08-20T01:49:51;101406.09;;;19.18
13304;BMP280;6720;51.958;4.540;2022-08-20T01:52:26;101411.94;;;19.06
13304;BMP280;6720;51.958;4.540;2022-08-20T01:54:54;101419.34;;;18.98
13304;BMP280;6720;51.958;4.540;2022-08-20T01:57:22;101419.72;;;18.89
13304;BMP280;6720;51.958;4.540;2022-08-20T01:59:51;101416.22;;;18.89
13304;BMP280;6720;51.958;4.540;2022-08-20T02:02:17;101417.91;;;18.91
13304;BMP280;6720;51.958;4.540;2022-08-20T02:04:42;101406.66;;;18.85
13304;BMP280;6720;51.958;4.540;2022-08-20T02:07:14;101418.75;;;18.92
13304;BMP280;6720;51.958;4.540;2022-08-20T02:09:40;101420.66;;;18.88
13304;BMP280;6720;51.958;4.540;2022-08-20T02:12:07;101422.50;;;18.86
13304;BMP280;6720;51.958;4.540;2022-08-20T02:14:34;101422.56;;;18.85
13304;BMP280;6720;51.958;4.540;2022-08-20T02:17:01;101425.56;;;18.77
13304;BMP280;6720;51.958;4.540;2022-08-20T02:19:32;101428.25;;;18.76
13304;BMP280;6720;51.958;4.540;2022-08-20T02:22:01;101426.50;;;18.76
13304;BMP280;6720;51.958;4.540;2022-08-20T02:24:30;101425.69;;;18.74
13304;BMP280;6720;51.958;4.540;2022-08-20T02:26:55;101424.31;;;18.64
13304;BMP280;6720;51.958;4.540;2022-08-20T02:29:21;101414.63;;;18.63
13304;BMP280;6720;51.958;4.540;2022-08-20T02:31:47;101372.34;;;18.39
13304;BMP280;6720;51.958;4.540;2022-08-20T02:34:13;101418.34;;;18.59
13304;BMP280;6720;51.958;4.540;2022-08-20T02:36:40;101414.09;;;18.55
13304;BMP280;6720;51.958;4.540;2022-08-20T02:39:09;101421.13;;;18.56
13304;BMP280;6720;51.958;4.540;2022-08-20T02:41:36;101414.31;;;18.49
13304;BMP280;6720;51.958;4.540;2022-08-20T02:44:03;101427.47;;;18.52
13304;BMP280;6720;51.958;4.540;2022-08-20T02:46:29;101408.41;;;18.43
13304;BMP280;6720;51.958;4.540;2022-08-20T02:48:56;101430.19;;;18.51
13304;BMP280;6720;51.958;4.540;2022-08-20T02:51:21;101435.19;;;18.58
13304;BMP280;6720;51.958;4.540;2022-08-20T02:53:47;101432.59;;;18.57
13304;BMP280;6720;51.958;4.540;2022-08-20T02:56:13;101430.66;;;18.60
13304;BMP280;6720;51.958;4.540;2022-08-20T02:58:39;101429.06;;;18.56
13304;BMP280;6720;51.958;4.540;2022-08-20T03:01:07;101383.19;;;18.33
13304;BMP280;6720;51.958;4.540;2022-08-20T03:03:33;101425.63;;;18.54
13304;BMP280;6720;51.958;4.540;2022-08-20T03:06:00;101431.78;;;18.55
13304;BMP280;6720;51.958;4.540;2022-08-20T03:08:27;101437.03;;;18.56
13304;BMP280;6720;51.958;4.540;2022-08-20T03:10:53;101428.41;;;18.51
13304;BMP280;6720;51.958;4.540;2022-08-20T03:13:19;101428.78;;;18.42
13304;BMP280;6720;51.958;4.540;2022-08-20T03:15:48;101427.19;;;18.38
13304;BMP280;6720;51.958;4.540;2022-08-20T03:18:15;101410.78;;;18.27
13304;BMP280;6720;51.958;4.540;2022-08-20T03:20:42;101422.94;;;18.33
13304;BMP280;6720;51.958;4.540;2022-08-20T03:23:08;101421.34;;;18.29
13304;BMP280;6720;51.958;4.540;2022-08-20T03:25:34;101420.69;;;18.22
13304;BMP280;6720;51.958;4.540;2022-08-20T03:27:59;101424.50;;;18.15
13304;BMP280;6720;51.958;4.540;2022-08-20T03:30:26;101428.19;;;18.11
13304;BMP280;6720;51.958;4.540;2022-08-20T03:32:52;101431.78;;;18.10
13304;BMP280;6720;51.958;4.540;2022-08-20T03:35:20;101434.59;;;18.05
13304;BMP280;6720;51.958;4.540;2022-08-20T03:37:46;101420.91;;;17.94
13304;BMP280;6720;51.958;4.540;2022-08-20T03:40:19;101432.41;;;17.93
13304;BMP280;6720;51.958;4.540;2022-08-20T03:42:45;101431.94;;;17.82
13304;BMP280;6720;51.958;4.540;2022-08-20T03:45:11;101433.59;;;17.85
13304;BMP280;6720;51.958;4.540;2022-08-20T03:47:39;101434.88;;;17.75
13304;BMP280;6720;51.958;4.540;2022-08-20T03:50:06;101425.38;;;17.69
13304;BMP280;6720;51.958;4.540;2022-08-20T03:52:32;101433.47;;;17.65
13304;BMP280;6720;51.958;4.540;2022-08-20T03:54:57;101435.44;;;17.60
13304;BMP280;6720;51.958;4.540;2022-08-20T03:57:24;101425.06;;;17.54
13304;BMP280;6720;51.958;4.540;2022-08-20T03:59:50;101423.44;;;17.50
13304;BMP280;6720;51.958;4.540;2022-08-20T04:02:16;101435.66;;;17.54
13304;BMP280;6720;51.958;4.540;2022-08-20T04:04:41;101435.75;;;17.51
13304;BMP280;6720;51.958;4.540;2022-08-20T04:07:19;101441.28;;;17.45
13304;BMP280;6720;51.958;4.540;2022-08-20T04:09:50;101432.72;;;17.37
13304;BMP280;6720;51.958;4.540;2022-08-20T04:12:17;101434.53;;;17.35
13304;BMP280;6720;51.958;4.540;2022-08-20T04:14:42;101428.72;;;17.25
13304;BMP280;6720;51.958;4.540;2022-08-20T04:17:09;101437.53;;;17.26
13304;BMP280;6720;51.958;4.540;2022-08-20T04:19:36;101429.97;;;17.15
13304;BMP280;6720;51.958;4.540;2022-08-20T04:22:03;101443.84;;;17.22
13304;BMP280;6720;51.958;4.540;2022-08-20T04:24:28;101446.53;;;17.20
13304;BMP280;6720;51.958;4.540;2022-08-20T04:26:54;101446.63;;;17.17
13304;BMP280;6720;51.958;4.540;2022-08-20T04:29:21;101456.56;;;17.11
13304;BMP280;6720;51.958;4.540;2022-08-20T04:31:47;101449.72;;;17.05
13304;BMP280;6720;51.958;4.540;2022-08-20T04:34:12;101461.03;;;17.09
13304;BMP280;6720;51.958;4.540;2022-08-20T04:36:38;101454.13;;;17.05
13304;BMP280;6720;51.958;4.540;2022-08-20T04:39:05;101454.16;;;17.03
13304;BMP280;6720;51.958;4.540;2022-08-20T04:41:31;101450.25;;;16.89
13304;BMP280;6720;51.958;4.540;2022-08-20T04:43:56;101464.16;;;16.95
13304;BMP280;6720;51.958;4.540;2022-08-20T04:46:24;101468.63;;;16.93
13304;BMP280;6720;51.958;4.540;2022-08-20T04:48:52;101464.50;;;16.85
13304;BMP280;6720;51.958;4.540;2022-08-20T04:51:18;101469.69;;;16.88
13304;BMP280;6720;51.958;4.540;2022-08-20T04:53:44;101469.00;;;16.81
13304;BMP280;6720;51.958;4.540;2022-08-20T04:56:10;101467.38;;;16.77
13304;BMP280;6720;51.958;4.540;2022-08-20T04:58:38;101475.28;;;16.79
13304;BMP280;6720;51.958;4.540;2022-08-20T05:01:08;101477.13;;;16.77
13304;BMP280;6720;51.958;4.540;2022-08-20T05:03:36;101474.44;;;16.78
13304;BMP280;6720;51.958;4.540;2022-08-20T05:06:04;101474.56;;;16.74
13304;BMP280;6720;51.958;4.540;2022-08-20T05:08:31;101473.03;;;16.67
13304;BMP280;6720;51.958;4.540;2022-08-20T05:10:57;101473.72;;;16.72
13304;BMP280;6720;51.958;4.540;2022-08-20T05:13:24;101476.47;;;16.70
13304;BMP280;6720;51.958;4.540;2022-08-20T05:15:50;101477.31;;;16.71
13304;BMP280;6720;51.958;4.540;2022-08-20T05:18:18;101483.47;;;16.71
13304;BMP280;6720;51.958;4.540;2022-08-20T05:20:46;101488.50;;;16.79
13304;BMP280;6720;51.958;4.540;2022-08-20T05:23:13;101496.47;;;16.77
13304;BMP280;6720;51.958;4.540;2022-08-20T05:25:40;101498.19;;;16.80
13304;BMP280;6720;51.958;4.540;2022-08-20T05:28:11;101503.53;;;16.78
13304;BMP280;6720;51.958;4.540;2022-08-20T05:30:41;101502.56;;;16.81
13304;BMP280;6720;51.958;4.540;2022-08-20T05:33:07;101504.38;;;16.79
13304;BMP280;6720;51.958;4.540;2022-08-20T05:35:35;101513.78;;;16.87
13304;BMP280;6720;51.958;4.540;2022-08-20T05:38:06;101505.91;;;16.86
13304;BMP280;6720;51.958;4.540;2022-08-20T05:40:33;101501.44;;;16.88
13304;BMP280;6720;51.958;4.540;2022-08-20T05:42:59;101508.31;;;16.93
13304;BMP280;6720;51.958;4.540;2022-08-20T05:45:24;101505.56;;;16.96
13304;BMP280;6720;51.958;4.540;2022-08-20T05:47:49;101513.34;;;17.01
13304;BMP280;6720;51.958;4.540;2022-08-20T05:50:16;101511.72;;;16.97
13304;BMP280;6720;51.958;4.540;2022-08-20T05:52:42;101514.97;;;17.05
13304;BMP280;6720;51.958;4.540;2022-08-20T05:55:10;101521.19;;;17.04
13304;BMP280;6720;51.958;4.540;2022-08-20T05:57:38;101521.91;;;17.09
13304;BMP280;6720;51.958;4.540;2022-08-20T06:00:07;101519.81;;;17.18
13304;BMP280;6720;51.958;4.540;2022-08-20T06:02:33;101526.69;;;17.24
13304;BMP280;6720;51.958;4.540;2022-08-20T06:05:17;101531.78;;;17.30
13304;BMP280;6720;51.958;4.540;2022-08-20T06:07:44;101529.03;;;17.33
13304;BMP280;6720;51.958;4.540;2022-08-20T06:10:10;101528.91;;;17.36
13304;BMP280;6720;51.958;4.540;2022-08-20T06:12:35;101520.72;;;17.45
13304;BMP280;6720;51.958;4.540;2022-08-20T06:15:02;101529.44;;;17.47
13304;BMP280;6720;51.958;4.540;2022-08-20T06:17:28;101521.41;;;17.50
13304;BMP280;6720;51.958;4.540;2022-08-20T06:19:53;101521.25;;;17.54
13304;BMP280;6720;51.958;4.540;2022-08-20T06:22:19;101517.78;;;17.52
13304;BMP280;6720;51.958;4.540;2022-08-20T06:24:44;101524.41;;;17.65
13304;BMP280;6720;51.958;4.540;2022-08-20T06:27:13;101526.72;;;17.74
13304;BMP280;6720;51.958;4.540;2022-08-20T06:29:38;101523.91;;;17.79
13304;BMP280;6720;51.958;4.540;2022-08-20T06:32:04;101521.03;;;17.85
13304;BMP280;6720;51.958;4.540;2022-08-20T06:34:29;101520.56;;;17.98
13304;BMP280;6720;51.958;4.540;2022-08-20T06:36:55;101523.72;;;18.08
13304;BMP280;6720;51.958;4.540;2022-08-20T06:39:24;101523.50;;;18.14
13304;BMP280;6720;51.958;4.540;2022-08-20T06:41:51;101526.84;;;18.19
13304;BMP280;6720;51.958;4.540;2022-08-20T06:44:17;101533.88;;;18.20
13304;BMP280;6720;51.958;4.540;2022-08-20T06:46:45;101529.75;;;18.36
13304;BMP280;6720;51.958;4.540;2022-08-20T06:49:11;101539.84;;;18.50
13304;BMP280;6720;51.958;4.540;2022-08-20T06:51:37;101545.31;;;18.45
13304;BMP280;6720;51.958;4.540;2022-08-20T06:54:03;101535.47;;;18.49
13304;BMP280;6720;51.958;4.540;2022-08-20T06:56:29;101538.06;;;18.50
13304;BMP280;6720;51.958;4.540;2022-08-20T06:58:55;101537.59;;;18.62
13304;BMP280;6720;51.958;4.540;2022-08-20T07:01:20;101543.63;;;18.66
13304;BMP280;6720;51.958;4.540;2022-08-20T07:03:48;101539.81;;;18.73
13304;BMP280;6720;51.958;4.540;2022-08-20T07:06:15;101548.25;;;18.82
13304;BMP280;6720;51.958;4.540;2022-08-20T07:08:42;101542.19;;;19.02
13304;BMP280;6720;51.958;4.540;2022-08-20T07:11:10;101549.47;;;18.97
13304;BMP280;6720;51.958;4.540;2022-08-20T07:13:36;101550.91;;;19.04
13304;BMP280;6720;51.958;4.540;2022-08-20T07:16:03;101556.31;;;19.02
13304;BMP280;6720;51.958;4.540;2022-08-20T07:18:29;101553.41;;;19.08
13304;BMP280;6720;51.958;4.540;2022-08-20T07:20:55;101552.56;;;19.08
13304;BMP280;6720;51.958;4.540;2022-08-20T07:23:20;101559.31;;;19.15
13304;BMP280;6720;51.958;4.540;2022-08-20T07:25:48;101559.09;;;19.21
13304;BMP280;6720;51.958;4.540;2022-08-20T07:28:17;101560.06;;;19.18
13304;BMP280;6720;51.958;4.540;2022-08-20T07:30:45;101562.91;;;19.35
13304;BMP280;6720;51.958;4.540;2022-08-20T07:33:30;101567.75;;;19.47
13304;BMP280;6720;51.958;4.540;2022-08-20T07:35:58;101562.72;;;19.81
13304;BMP280;6720;51.958;4.540;2022-08-20T07:38:25;101570.00;;;19.76
13304;BMP280;6720;51.958;4.540;2022-08-20T07:40:59;101566.97;;;19.85
13304;BMP280;6720;51.958;4.540;2022-08-20T07:43:26;101571.19;;;20.09
13304;BMP280;6720;51.958;4.540;2022-08-20T07:45:53;101573.53;;;19.97
13304;BMP280;6720;51.958;4.540;2022-08-20T07:48:23;101574.00;;;20.06
13304;BMP280;6720;51.958;4.540;2022-08-20T07:51:00;101575.47;;;20.13
13304;BMP280;6720;51.958;4.540;2022-08-20T07:53:27;101573.91;;;20.28
13304;BMP280;6720;51.958;4.540;2022-08-20T07:55:53;101572.09;;;20.48
13304;BMP280;6720;51.958;4.540;2022-08-20T07:58:20;101574.78;;;20.28
13304;BMP280;6720;51.958;4.540;2022-08-20T08:00:48;101592.34;;;20.32
13304;BMP280;6720;51.958;4.540;2022-08-20T08:03:14;101584.31;;;20.52
13304;BMP280;6720;51.958;4.540;2022-08-20T08:05:42;101580.03;;;20.68
13304;BMP280;6720;51.958;4.540;2022-08-20T08:08:15;101593.22;;;20.51
13304;BMP280;6720;51.958;4.540;2022-08-20T08:10:41;101594.94;;;20.52
13304;BMP280;6720;51.958;4.540;2022-08-20T08:13:09;101583.53;;;20.50
13304;BMP280;6720;51.958;4.540;2022-08-20T08:15:38;101592.81;;;20.79
13304;BMP280;6720;51.958;4.540;2022-08-20T08:18:11;101578.59;;;20.61
13304;BMP280;6720;51.958;4.540;2022-08-20T08:20:40;101597.56;;;20.72
13304;BMP280;6720;51.958;4.540;2022-08-20T08:23:07;101586.78;;;20.75
13304;BMP280;6720;51.958;4.540;2022-08-20T08:25:39;101587.69;;;20.74
13304;BMP280;6720;51.958;4.540;2022-08-20T08:28:08;101592.44;;;20.86
13304;BMP280;6720;51.958;4.540;2022-08-20T08:30:37;101597.00;;;20.84
13304;BMP280;6720;51.958;4.540;2022-08-20T08:33:03;101601.16;;;20.90
13304;BMP280;6720;51.958;4.540;2022-08-20T08:35:47;101602.31;;;21.03
13304;BMP280;6720;51.958;4.540;2022-08-20T08:38:13;101606.00;;;21.00
13304;BMP280;6720;51.958;4.540;2022-08-20T08:40:39;101590.19;;;21.33
13304;BMP280;6720;51.958;4.540;2022-08-20T08:43:06;101600.28;;;21.26
13304;BMP280;6720;51.958;4.540;2022-08-20T08:45:41;101600.53;;;21.03
13304;BMP280;6720;51.958;4.540;2022-08-20T08:48:15;101607.38;;;21.09
13304;BMP280;6720;51.958;4.540;2022-08-20T08:50:43;101604.19;;;21.19
13304;BMP280;6720;51.958;4.540;2022-08-20T08:53:18;101614.00;;;21.19
13304;BMP280;6720;51.958;4.540;2022-08-20T08:55:45;101622.63;;;21.24
13304;BMP280;6720;51.958;4.540;2022-08-20T08:58:10;101618.03;;;21.44
13304;BMP280;6720;51.958;4.540;2022-08-20T09:00:36;101618.81;;;21.46
13304;BMP280;6720;51.958;4.540;2022-08-20T09:03:08;101619.91;;;21.42
13304;BMP280;6720;51.958;4.540;2022-08-20T09:05:43;101613.44;;;21.65
13304;BMP280;6720;51.958;4.540;2022-08-20T09:08:12;101604.94;;;21.76
13304;BMP280;6720;51.958;4.540;2022-08-20T09:10:39;101601.56;;;21.89
13304;BMP280;6720;51.958;4.540;2022-08-20T09:13:06;101599.13;;;21.85
13304;BMP280;6720;51.958;4.540;2022-08-20T09:15:31;101576.06;;;21.84
13304;BMP280;6720;51.958;4.540;2022-08-20T09:17:57;101598.63;;;22.11
13304;BMP280;6720;51.958;4.540;2022-08-20T09:20:23;101596.38;;;21.86
13304;BMP280;6720;51.958;4.540;2022-08-20T09:22:48;101606.94;;;22.22
13304;BMP280;6720;51.958;4.540;2022-08-20T09:25:14;101613.31;;;22.19
13304;BMP280;6720;51.958;4.540;2022-08-20T09:27:39;101614.19;;;22.03
13304;BMP280;6720;51.958;4.540;2022-08-20T09:30:05;101614.13;;;22.54
13304;BMP280;6720;51.958;4.540;2022-08-20T09:32:30;101621.38;;;22.35
13304;BMP280;6720;51.958;4.540;2022-08-20T09:34:56;101613.88;;;22.58
13304;BMP280;6720;51.958;4.540;2022-08-20T09:37:25;101619.22;;;22.58
13304;BMP280;6720;51.958;4.540;2022-08-20T09:39:50;101610.31;;;22.90
13304;BMP280;6720;51.958;4.540;2022-08-20T09:42:28;101608.06;;;22.98
13304;BMP280;6720;51.958;4.540;2022-08-20T09:44:54;101611.59;;;22.68
13304;BMP280;6720;51.958;4.540;2022-08-20T09:47:19;101618.28;;;22.59
13304;BMP280;6720;51.958;4.540;2022-08-20T09:49:45;101618.72;;;22.83
13304;BMP280;6720;51.958;4.540;2022-08-20T09:52:19;101616.53;;;22.91
13304;BMP280;6720;51.958;4.540;2022-08-20T09:54:45;101604.78;;;23.09
13304;BMP280;6720;51.958;4.540;2022-08-20T09:57:10;101619.88;;;23.56
13304;BMP280;6720;51.958;4.540;2022-08-20T09:59:37;101630.34;;;23.45
13304;BMP280;6720;51.958;4.540;2022-08-20T10:02:03;101616.69;;;23.50
13304;BMP280;6720;51.958;4.540;2022-08-20T10:04:28;101613.19;;;23.34
13304;BMP280;6720;51.958;4.540;2022-08-20T10:06:54;101609.63;;;23.33
13304;BMP280;6720;51.958;4.540;2022-08-20T10:09:20;101607.72;;;23.20
13304;BMP280;6720;51.958;4.540;2022-08-20T10:11:45;101611.00;;;23.09
13304;BMP280;6720;51.958;4.540;2022-08-20T10:14:10;101607.44;;;22.78
13304;BMP280;6720;51.958;4.540;2022-08-20T10:16:36;101611.63;;;22.51
13304;BMP280;6720;51.958;4.540;2022-08-20T10:19:03;101618.84;;;22.49
13304;BMP280;6720;51.958;4.540;2022-08-20T10:21:30;101604.78;;;22.62
13304;BMP280;6720;51.958;4.540;2022-08-20T10:23:56;101601.16;;;22.46
13304;BMP280;6720;51.958;4.540;2022-08-20T10:26:21;101599.69;;;22.41
13304;BMP280;6720;51.958;4.540;2022-08-20T10:28:47;101601.44;;;23.05
13304;BMP280;6720;51.958;4.540;2022-08-20T10:31:12;101614.03;;;23.19
13304;BMP280;6720;51.958;4.540;2022-08-20T10:33:40;101619.81;;;23.27
13304;BMP280;6720;51.958;4.540;2022-08-20T10:36:13;101623.88;;;23.94
13304;BMP280;6720;51.958;4.540;2022-08-20T10:38:40;101614.78;;;23.97
13304;BMP280;6720;51.958;4.540;2022-08-20T10:41:06;101611.69;;;24.18
13304;BMP280;6720;51.958;4.540;2022-08-20T10:43:32;101603.06;;;23.54
13304;BMP280;6720;51.958;4.540;2022-08-20T10:45:57;101612.28;;;23.64
13304;BMP280;6720;51.958;4.540;2022-08-20T10:48:22;101614.84;;;24.39
13304;BMP280;6720;51.958;4.540;2022-08-20T10:50:48;101625.19;;;24.45
13304;BMP280;6720;51.958;4.540;2022-08-20T10:53:14;101618.28;;;24.97
13304;BMP280;6720;51.958;4.540;2022-08-20T10:55:40;101604.72;;;24.58
13304;BMP280;6720;51.958;4.540;2022-08-20T10:58:06;101591.28;;;25.00
13304;BMP280;6720;51.958;4.540;2022-08-20T11:00:32;101618.47;;;24.24
13304;BMP280;6720;51.958;4.540;2022-08-20T11:02:57;101607.59;;;23.97
13304;BMP280;6720;51.958;4.540;2022-08-20T11:05:23;101606.63;;;25.25
13304;BMP280;6720;51.958;4.540;2022-08-20T11:07:48;101611.88;;;24.57
13304;BMP280;6720;51.958;4.540;2022-08-20T11:10:14;101606.31;;;24.46
13304;BMP280;6720;51.958;4.540;2022-08-20T11:12:39;101613.84;;;23.98
13304;BMP280;6720;51.958;4.540;2022-08-20T11:15:05;101617.47;;;23.81
13304;BMP280;6720;51.958;4.540;2022-08-20T11:17:34;101602.94;;;24.01
13304;BMP280;6720;51.958;4.540;2022-08-20T11:20:00;101608.88;;;23.76
13304;BMP280;6720;51.958;4.540;2022-08-20T11:22:26;101617.72;;;23.63
13304;BMP280;6720;51.958;4.540;2022-08-20T11:24:53;101614.41;;;23.73
13304;BMP280;6720;51.958;4.540;2022-08-20T11:27:22;101604.41;;;24.06
13304;BMP280;6720;51.958;4.540;2022-08-20T11:29:48;101612.81;;;24.14
13304;BMP280;6720;51.958;4.540;2022-08-20T11:32:14;101617.91;;;24.47
13304;BMP280;6720;51.958;4.540;2022-08-20T11:34:39;101620.13;;;24.83
13304;BMP280;6720;51.958;4.540;2022-08-20T11:37:05;101615.44;;;24.58
13304;BMP280;6720;51.958;4.540;2022-08-20T11:39:30;101610.19;;;23.99
13304;BMP280;6720;51.958;4.540;2022-08-20T11:41:55;101615.38;;;24.02
13304;BMP280;6720;51.958;4.540;2022-08-20T11:44:21;101609.94;;;23.88
13304;BMP280;6720;51.958;4.540;2022-08-20T11:46:46;101614.09;;;24.23
13304;BMP280;6720;51.958;4.540;2022-08-20T11:49:12;101612.19;;;23.66
13304;BMP280;6720;51.958;4.540;2022-08-20T11:51:37;101610.63;;;23.62
13304;BMP280;6720;51.958;4.540;2022-08-20T11:54:03;101625.16;;;23.27
13304;BMP280;6720;51.958;4.540;2022-08-20T11:56:29;101618.09;;;23.26
13304;BMP280;6720;51.958;4.540;2022-08-20T11:58:55;101597.72;;;23.08
13304;BMP280;6720;51.958;4.540;2022-08-20T12:01:20;101613.75;;;23.39
13304;BMP280;6720;51.958;4.540;2022-08-20T12:03:45;101611.50;;;24.49
13304;BMP280;6720;51.958;4.540;2022-08-20T12:06:12;101617.91;;;24.89
13304;BMP280;6720;51.958;4.540;2022-08-20T12:08:37;101604.88;;;25.64
13304;BMP280;6720;51.958;4.540;2022-08-20T12:11:04;101594.94;;;24.99
13304;BMP280;6720;51.958;4.540;2022-08-20T12:13:35;101615.56;;;24.71
13304;BMP280;6720;51.958;4.540;2022-08-20T12:16:01;101630.72;;;24.42
13304;BMP280;6720;51.958;4.540;2022-08-20T12:18:27;101611.53;;;24.63
13304;BMP280;6720;51.958;4.540;2022-08-20T12:20:52;101604.72;;;24.44
13304;BMP280;6720;51.958;4.540;2022-08-20T12:23:18;101628.81;;;24.58
13304;BMP280;6720;51.958;4.540;2022-08-20T12:25:44;101610.56;;;24.93
13304;BMP280;6720;51.958;4.540;2022-08-20T12:28:12;101622.38;;;24.18
13304;BMP280;6720;51.958;4.540;2022-08-20T12:30:37;101629.00;;;24.97
13304;BMP280;6720;51.958;4.540;2022-08-20T12:33:03;101625.66;;;24.37
13304;BMP280;6720;51.958;4.540;2022-08-20T12:35:28;101616.47;;;24.41
13304;BMP280;6720;51.958;4.540;2022-08-20T12:37:54;101630.63;;;24.43
13304;BMP280;6720;51.958;4.540;2022-08-20T12:40:22;101633.69;;;23.78
13304;BMP280;6720;51.958;4.540;2022-08-20T12:42:48;101627.22;;;23.53
13304;BMP280;6720;51.958;4.540;2022-08-20T12:45:14;101626.06;;;23.86
13304;BMP280;6720;51.958;4.540;2022-08-20T12:47:42;101627.84;;;23.72
13304;BMP280;6720;51.958;4.540;2022-08-20T12:50:10;101637.69;;;23.26
13304;BMP280;6720;51.958;4.540;2022-08-20T12:52:39;101636.22;;;23.21
13304;BMP280;6720;51.958;4.540;2022-08-20T12:55:09;101652.69;;;24.19
13304;BMP280;6720;51.958;4.540;2022-08-20T12:57:41;101640.94;;;25.20
13304;BMP280;6720;51.958;4.540;2022-08-20T13:00:11;101633.75;;;24.22
13304;BMP280;6720;51.958;4.540;2022-08-20T13:02:37;101623.78;;;24.10
13304;BMP280;6720;51.958;4.540;2022-08-20T13:05:05;101626.97;;;24.30
13304;BMP280;6720;51.958;4.540;2022-08-20T13:07:31;101649.28;;;24.59
13304;BMP280;6720;51.958;4.540;2022-08-20T13:09:57;101645.44;;;25.19
13304;BMP280;6720;51.958;4.540;2022-08-20T13:12:23;101643.75;;;25.71
13304;BMP280;6720;51.958;4.540;2022-08-20T13:14:48;101659.22;;;25.80
13304;BMP280;6720;51.958;4.540;2022-08-20T13:17:16;101647.66;;;25.53
13304;BMP280;6720;51.958;4.540;2022-08-20T13:19:42;101637.13;;;24.96
13304;BMP280;6720;51.958;4.540;2022-08-20T13:22:09;101652.06;;;26.57
13304;BMP280;6720;51.958;4.540;2022-08-20T13:24:34;101647.75;;;26.17
13304;BMP280;6720;51.958;4.540;2022-08-20T13:27:15;101648.19;;;26.11
13304;BMP280;6720;51.958;4.540;2022-08-20T13:29:49;101646.75;;;25.26
13304;BMP280;6720;51.958;4.540;2022-08-20T13:32:16;101649.97;;;25.98
13304;BMP280;6720;51.958;4.540;2022-08-20T13:34:43;101640.75;;;26.02
13304;BMP280;6720;51.958;4.540;2022-08-20T13:37:18;101637.22;;;25.75
13304;BMP280;6720;51.958;4.540;2022-08-20T13:39:44;101637.47;;;25.18
13304;BMP280;6720;51.958;4.540;2022-08-20T13:42:10;101660.03;;;24.73
13304;BMP280;6720;51.958;4.540;2022-08-20T13:44:36;101652.44;;;24.51
13304;BMP280;6720;51.958;4.540;2022-08-20T13:47:15;101647.88;;;24.67
13304;BMP280;6720;51.958;4.540;2022-08-20T13:49:40;101644.94;;;23.85
13304;BMP280;6720;51.958;4.540;2022-08-20T13:52:06;101642.81;;;24.05
13304;BMP280;6720;51.958;4.540;2022-08-20T13:54:31;101636.44;;;24.36
13304;BMP280;6720;51.958;4.540;2022-08-20T13:57:23;101640.50;;;23.39
13304;BMP280;6720;51.958;4.540;2022-08-20T13:59:55;101641.09;;;23.89
13304;BMP280;6720;51.958;4.540;2022-08-20T14:02:21;101652.34;;;23.95
13304;BMP280;6720;51.958;4.540;2022-08-20T14:04:47;101644.38;;;23.49
13304;BMP280;6720;51.958;4.540;2022-08-20T14:07:16;101636.28;;;24.67
13304;BMP280;6720;51.958;4.540;2022-08-20T14:09:45;101649.94;;;24.34
13304;BMP280;6720;51.958;4.540;2022-08-20T14:12:12;101644.94;;;24.14